Time;durP1;ratioP1;P1;durP2;ratioP2;P2;SDS_P1;SDS_P2;PMS_P1;PMS_P2;Temp;Humidity;BMP_temperature;BMP_pressure;BME280_temperature;BME280_humidity;BME280_pressure;Samples;Min_cycle;Max_cycle;Signal;HPM_P1;HPM_P2
2022/10/20 03:50:00;;;;;;;10.48;4.97;;;;;;;12.05;70.21;101852.34;5122614;27;20359;-85
2022/10/20 03:52:25;;;;;;;8.05;4.50;;;;;;;12.20;69.44;101844.94;5073391;28;20488;-84
2022/10/20 03:54:51;;;;;;;14.02;5.95;;;;;;;12.21;69.15;101829.31;5089884;28;20023;-83
2022/10/20 03:57:16;;;;;;;9.93;4.95;;;;;;;12.63;68.25;101872.75;5100634;28;20109;-84
2022/10/20 03:59:42;;;;;;;12.23;5.38;;;;;;;12.65;67.67;101850.16;5067447;28;20035;-84
2022/10/20 04:02:12;;;;;;;8.45;5.47;;;;;;;12.80;67.30;101862.56;5087169;28;20039;-84
2022/10/20 04:04:37;;;;;;;13.15;6.80;;;;;;;12.94;66.78;101867.22;5070438;28;20028;-84
2022/10/20 04:07:03;;;;;;;7.90;4.35;;;;;;;13.00;66.49;101860.94;5103504;28;20028;-84
2022/10/20 04:09:28;;;;;;;11.13;5.80;;;;;;;12.99;66.40;101854.06;5052584;28;20493;-84
2022/10/20 04:11:54;;;;;;;9.98;5.68;;;;;;;12.85;66.14;101832.06;5068461;28;20032;-84
2022/10/20 04:14:19;;;;;;;9.60;6.00;;;;;;;13.05;65.74;101849.44;5104647;28;20024;-80
2022/10/20 04:16:45;;;;;;;8.52;5.50;;;;;;;13.24;65.76;101865.19;5085504;28;20473;-80
2022/10/20 04:19:10;;;;;;;9.63;5.47;;;;;;;13.30;65.51;101870.16;5085731;28;20020;-80
2022/10/20 04:21:36;;;;;;;8.95;4.75;;;;;;;13.35;65.11;101869.94;5086079;28;20089;-80
2022/10/20 04:24:01;;;;;;;9.38;6.13;;;;;;;13.38;64.96;101868.09;5087300;28;20078;-91
2022/10/20 04:26:27;;;;;;;23.27;4.88;;;;;;;13.39;65.37;101864.56;5067657;28;20032;-87
2022/10/20 04:28:55;;;;;;;11.85;5.55;;;;;;;13.40;64.68;101858.47;5085709;28;20035;-91
2022/10/20 04:31:21;;;;;;;10.93;5.15;;;;;;;13.40;64.49;101863.66;5090248;28;20117;-92
2022/10/20 04:33:52;;;;;;;16.73;7.07;;;;;;;13.36;65.00;101867.28;5072479;28;20028;-95
2022/10/20 04:36:18;;;;;;;11.27;6.85;;;;;;;13.34;65.15;101876.06;5046575;28;20056;-94
2022/10/20 04:38:43;;;;;;;27.83;16.30;;;;;;;13.33;65.09;101864.81;5070625;28;20390;-93
2022/10/20 04:41:09;;;;;;;20.23;11.00;;;;;;;13.35;65.44;101869.94;5069304;28;20024;-95
2022/10/20 04:43:34;;;;;;;20.75;9.15;;;;;;;13.23;64.98;101853.09;5051979;28;20032;-81
2022/10/20 04:46:01;;;;;;;17.90;8.00;;;;;;;13.25;65.58;101882.47;5088474;28;20032;-92
2022/10/20 04:48:26;;;;;;;11.80;5.95;;;;;;;13.14;65.79;101880.25;5090195;28;20059;-82
2022/10/20 04:51:06;;;;;;;13.23;6.65;;;;;;;13.04;65.48;101862.50;5104970;28;20024;-83
2022/10/20 04:53:31;;;;;;;12.32;5.82;;;;;;;13.10;66.05;101893.44;5089744;28;20076;-92
2022/10/20 04:55:57;;;;;;;11.68;5.88;;;;;;;13.02;66.09;101885.09;5085469;28;20024;-92
2022/10/20 04:58:23;;;;;;;9.27;6.25;;;;;;;13.01;66.21;101873.03;5054433;28;20404;-91
2022/10/20 05:00:49;;;;;;;10.88;6.03;;;;;;;13.18;65.39;101886.19;5058718;28;20074;-93
2022/10/20 05:03:14;;;;;;;11.32;6.25;;;;;;;13.05;65.52;101882.38;5040396;28;20505;-94
2022/10/20 05:05:40;;;;;;;11.40;6.28;;;;;;;13.15;65.27;101888.91;5072793;28;20386;-94
2022/10/20 05:08:05;;;;;;;9.15;5.45;;;;;;;13.11;65.25;101882.16;5060021;28;20023;-87
2022/10/20 05:10:31;;;;;;;7.63;4.53;;;;;;;13.08;65.48;101896.13;5076485;28;20033;-84
2022/10/20 05:12:56;;;;;;;12.20;5.30;;;;;;;13.13;65.58;101894.16;5037825;28;20117;-87
2022/10/20 05:15:22;;;;;;;7.15;4.20;;;;;;;13.11;65.30;101906.38;5077725;28;20024;-87
2022/10/20 05:17:47;;;;;;;8.43;4.95;;;;;;;13.15;65.15;101896.69;5062497;28;20032;-87
2022/10/20 05:20:12;;;;;;;11.48;6.38;;;;;;;13.02;65.17;101900.69;5054037;28;20029;-83
2022/10/20 05:22:38;;;;;;;10.18;5.20;;;;;;;13.11;64.75;101906.38;5074259;28;20028;-93
2022/10/20 05:25:04;;;;;;;8.95;4.38;;;;;;;13.09;64.69;101912.53;5047541;28;20532;-93
2022/10/20 05:27:29;;;;;;;17.77;7.18;;;;;;;13.37;64.10;101917.50;5064261;28;20486;-92
2022/10/20 05:29:55;;;;;;;13.77;7.22;;;;;;;13.23;63.46;101925.88;5070642;28;20041;-87
2022/10/20 05:32:20;;;;;;;13.43;5.47;;;;;;;13.20;63.03;101921.63;5035833;28;20141;-82
2022/10/20 05:34:46;;;;;;;10.20;5.18;;;;;;;13.04;63.33;101915.31;5060023;28;20452;-80
2022/10/20 05:37:11;;;;;;;9.55;4.60;;;;;;;13.15;62.42;101923.53;5049805;28;20522;-89
2022/10/20 05:39:37;;;;;;;13.70;6.15;;;;;;;13.23;61.82;101930.22;5039169;28;20571;-80
2022/10/20 05:42:02;;;;;;;9.15;5.15;;;;;;;13.20;61.51;101931.19;5042459;28;20052;-90
2022/10/20 05:44:28;;;;;;;11.82;5.07;;;;;;;13.03;61.03;101916.22;5055409;28;20032;-89
2022/10/20 05:46:53;;;;;;;7.38;3.80;;;;;;;13.16;61.42;101945.16;5081222;28;20413;-92
2022/10/20 05:49:19;;;;;;;7.53;4.35;;;;;;;13.11;61.01;101931.50;5088474;28;20101;-85
2022/10/20 05:51:45;;;;;;;11.90;5.38;;;;;;;13.20;60.41;101947.63;5083134;28;20097;-93
2022/10/20 05:54:11;;;;;;;7.18;4.22;;;;;;;13.24;59.91;101944.91;5045313;28;20028;-80
2022/10/20 05:56:37;;;;;;;8.90;4.70;;;;;;;13.31;59.78;101952.41;5057783;28;20032;-90
2022/10/20 05:59:02;;;;;;;13.40;4.68;;;;;;;13.41;59.43;101963.28;5048118;28;20429;-92
2022/10/20 06:01:38;;;;;;;19.92;5.32;;;;;;;13.40;59.46;101965.03;5037396;28;20494;-84
2022/10/20 06:04:04;;;;;;;7.10;4.28;;;;;;;13.42;58.95;101959.78;5042785;28;20028;-91
2022/10/20 06:06:30;;;;;;;7.78;4.50;;;;;;;13.56;58.96;101975.66;5039986;28;20025;-94
2022/10/20 06:08:57;;;;;;;5.90;3.88;;;;;;;13.64;58.61;101983.16;5052695;28;20043;-91
2022/10/20 06:11:23;;;;;;;6.82;3.72;;;;;;;13.66;58.39;101989.97;5038855;28;20085;-91
2022/10/20 06:13:48;;;;;;;12.52;4.43;;;;;;;13.71;58.29;101985.47;5042836;28;20088;-84
2022/10/20 06:16:17;;;;;;;11.05;4.18;;;;;;;13.78;58.08;102007.72;5081393;28;20035;-84
2022/10/20 06:18:43;;;;;;;7.50;4.90;;;;;;;13.82;58.33;102013.63;5063544;28;20032;-85
2022/10/20 06:21:16;;;;;;;7.47;4.60;;;;;;;13.80;58.50;102004.22;5064055;28;20461;-85
2022/10/20 06:23:42;;;;;;;13.70;4.05;;;;;;;13.92;58.17;102012.34;5068551;28;20032;-85
2022/10/20 06:26:12;;;;;;;10.45;3.92;;;;;;;13.90;57.85;102013.31;5050659;28;20033;-86
2022/10/20 06:28:38;;;;;;;6.93;4.03;;;;;;;14.02;58.02;102016.25;5053086;28;20020;-87
2022/10/20 06:31:23;;;;;;;14.15;4.63;;;;;;;14.15;57.74;102015.75;5064242;28;20078;-86
2022/10/20 06:33:48;;;;;;;8.23;5.05;;;;;;;14.09;57.43;102006.47;5055683;28;20178;-89
2022/10/20 06:36:14;;;;;;;10.98;3.72;;;;;;;14.26;57.11;102019.63;5033051;27;20531;-90
2022/10/20 06:38:40;;;;;;;7.35;4.85;;;;;;;14.29;56.81;102018.63;5037109;28;20086;-88
2022/10/20 06:41:08;;;;;;;7.55;4.10;;;;;;;14.40;56.97;102016.41;5033848;28;20033;-89
2022/10/20 06:43:34;;;;;;;22.27;10.02;;;;;;;14.52;56.02;102026.34;5031674;28;20040;-86
2022/10/20 06:46:04;;;;;;;8.13;3.28;;;;;;;14.58;55.93;102022.63;5057041;28;20040;-89
2022/10/20 06:48:29;;;;;;;6.03;3.47;;;;;;;14.53;54.99;102001.97;5029444;28;20045;-89
2022/10/20 06:50:56;;;;;;;7.05;4.45;;;;;;;14.67;54.94;102003.16;5043097;28;20037;-81
2022/10/20 06:53:21;;;;;;;4.80;3.28;;;;;;;14.81;54.56;102026.81;5047632;28;20024;-81
2022/10/20 06:56:12;;;;;;;4.68;2.83;;;;;;;14.99;53.52;102023.41;5069023;28;20379;-87
2022/10/20 06:58:38;;;;;;;6.80;4.53;;;;;;;15.00;52.98;102025.09;5043782;28;20040;-89
2022/10/20 07:01:09;;;;;;;10.98;4.63;;;;;;;15.09;52.67;102022.06;5044893;28;20024;-92
2022/10/20 07:03:35;;;;;;;5.95;3.67;;;;;;;15.09;52.08;102011.63;5020683;28;20171;-87
2022/10/20 07:06:01;;;;;;;5.95;3.08;;;;;;;15.25;51.64;102024.81;5045971;28;20036;-95
2022/10/20 07:08:27;;;;;;;6.97;3.75;;;;;;;15.28;51.41;102022.06;5051906;28;20039;-89
2022/10/20 07:11:11;;;;;;;4.30;2.70;;;;;;;15.33;50.81;102027.03;5042258;28;20094;-89
2022/10/20 07:13:36;;;;;;;3.90;2.92;;;;;;;15.37;51.24;102026.00;5048494;28;20517;-87
2022/10/20 07:16:02;;;;;;;4.93;2.50;;;;;;;15.50;50.42;102016.69;5039371;28;20044;-87
2022/10/20 07:18:28;;;;;;;5.53;2.65;;;;;;;15.61;49.70;102034.47;5038123;28;20553;-90
2022/10/20 07:20:57;;;;;;;4.28;2.22;;;;;;;15.67;49.86;102023.75;5031623;28;20033;-80
2022/10/20 07:23:23;;;;;;;4.82;2.80;;;;;;;15.73;49.67;102024.31;5029982;28;20021;-86
2022/10/20 07:25:49;;;;;;;5.70;3.03;;;;;;;15.90;49.85;102028.69;5068101;28;20040;-82
2022/10/20 07:28:14;;;;;;;5.32;3.03;;;;;;;16.04;49.02;102028.88;5062070;28;20035;-84
2022/10/20 07:30:40;;;;;;;5.15;2.60;;;;;;;15.98;48.92;102002.22;5048195;28;20040;-84
2022/10/20 07:33:06;;;;;;;3.50;2.15;;;;;;;16.30;48.64;102029.31;5059161;28;20027;-83
2022/10/20 07:35:32;;;;;;;4.57;3.05;;;;;;;16.34;48.19;102021.25;5046845;28;20033;-84
2022/10/20 07:37:57;;;;;;;5.35;2.33;;;;;;;16.38;47.10;102005.41;5042652;28;20041;-88
2022/10/20 07:40:23;;;;;;;8.65;3.08;;;;;;;16.53;46.63;102020.31;5072699;28;20449;-85
2022/10/20 07:42:48;;;;;;;9.02;3.03;;;;;;;16.58;47.17;102026.13;5058042;28;20448;-89
2022/10/20 07:45:14;;;;;;;4.50;3.10;;;;;;;16.64;46.55;102023.22;5070556;28;20112;-92
2022/10/20 07:47:39;;;;;;;5.03;2.53;;;;;;;16.52;46.60;102013.41;5054186;28;20104;-89
2022/10/20 07:50:05;;;;;;;6.20;3.42;;;;;;;16.57;46.24;102027.06;5070569;28;20063;-96
2022/10/20 07:52:31;;;;;;;4.90;1.83;;;;;;;16.64;46.56;102033.66;5058759;28;20052;-93
2022/10/20 07:54:56;;;;;;;4.55;3.05;;;;;;;16.76;46.42;102030.44;5052390;28;20036;-87
2022/10/20 07:57:22;;;;;;;4.82;2.25;;;;;;;16.58;45.86;102000.00;5037803;28;20090;-84
2022/10/20 07:59:47;;;;;;;4.10;2.80;;;;;;;16.72;46.26;102030.69;5047140;28;20115;-95
2022/10/20 08:02:14;;;;;;;4.72;2.45;;;;;;;16.75;45.94;102026.13;5056600;28;20024;-81
2022/10/20 08:04:42;;;;;;;6.50;3.08;;;;;;;16.90;45.75;102030.53;5076171;28;20107;-85
2022/10/20 08:07:09;;;;;;;6.63;2.20;;;;;;;16.85;45.77;102016.88;5063687;28;20383;-87
2022/10/20 08:09:34;;;;;;;4.13;2.38;;;;;;;16.98;45.46;102037.97;5071456;28;20028;-84
2022/10/20 08:12:00;;;;;;;5.57;2.55;;;;;;;17.04;45.48;102032.44;5068776;28;20032;-89
2022/10/20 08:14:25;;;;;;;5.32;3.20;;;;;;;17.17;45.37;102038.66;5051600;28;20025;-85
2022/10/20 08:16:51;;;;;;;5.18;2.45;;;;;;;17.28;44.82;102045.94;5044582;28;20032;-86
2022/10/20 08:19:17;;;;;;;5.13;2.15;;;;;;;17.32;44.76;102031.78;5065629;28;20103;-91
2022/10/20 08:21:42;;;;;;;5.18;2.60;;;;;;;17.39;44.48;102040.94;5059679;28;20060;-88
2022/10/20 08:24:07;;;;;;;6.22;2.58;;;;;;;17.43;44.74;102042.50;5055393;28;20028;-89
2022/10/20 08:26:33;;;;;;;4.55;2.88;;;;;;;17.32;44.59;102029.16;5064079;28;20115;-88
2022/10/20 08:28:59;;;;;;;9.38;3.97;;;;;;;17.28;44.66;102018.94;5055797;28;20170;-82
2022/10/20 08:31:24;;;;;;;3.95;2.22;;;;;;;17.33;45.08;102035.22;5054192;28;20021;-93
2022/10/20 08:33:50;;;;;;;10.20;4.47;;;;;;;17.56;44.93;102039.19;5053723;28;20048;-92
2022/10/20 08:36:16;;;;;;;6.82;3.65;;;;;;;17.56;44.45;102024.31;5015549;28;21113;-87
2022/10/20 08:38:42;;;;;;;5.60;3.35;;;;;;;17.52;44.75;102020.22;5055874;28;20036;-93
2022/10/20 08:41:19;;;;;;;5.22;2.85;;;;;;;17.47;44.80;102028.28;5051011;28;20127;-88
2022/10/20 08:43:45;;;;;;;5.53;3.10;;;;;;;17.67;44.67;102037.66;5023724;28;20550;-82
2022/10/20 08:46:16;;;;;;;5.75;3.30;;;;;;;17.92;45.04;102037.16;5052269;28;20040;-90
2022/10/20 08:48:41;;;;;;;6.43;2.65;;;;;;;17.97;43.88;102040.31;5039306;28;20127;-95
2022/10/20 08:51:20;;;;;;;5.05;3.15;;;;;;;17.94;44.14;102023.97;5054332;28;20029;-89
2022/10/20 08:53:45;;;;;;;9.13;4.03;;;;;;;18.06;43.98;102039.78;5010209;28;20029;-82
2022/10/20 08:56:12;;;;;;;11.40;4.72;;;;;;;18.21;43.65;102027.59;5037928;28;20600;-91
2022/10/20 08:58:41;;;;;;;7.60;3.88;;;;;;;18.06;43.30;102002.28;5043891;28;20029;-85
2022/10/20 09:01:16;;;;;;;4.53;2.97;;;;;;;18.34;43.45;102040.81;5043023;28;20147;-87
2022/10/20 09:03:42;;;;;;;9.23;3.67;;;;;;;18.31;43.05;102025.28;5055475;28;20078;-87
2022/10/20 09:06:14;;;;;;;10.18;3.85;;;;;;;18.55;43.05;102026.41;5070384;28;20024;-85
2022/10/20 09:08:40;;;;;;;7.10;4.28;;;;;;;18.66;42.41;102043.31;5054671;28;20082;-88
2022/10/20 09:11:07;;;;;;;14.48;4.63;;;;;;;18.43;42.48;102015.84;5053300;28;20028;-88
2022/10/20 09:13:33;;;;;;;6.63;3.85;;;;;;;18.40;42.41;102016.03;5036287;28;20510;-87
2022/10/20 09:16:17;;;;;;;12.05;5.03;;;;;;;18.71;42.80;102044.72;5033980;28;20070;-90
2022/10/20 09:18:42;;;;;;;7.35;3.47;;;;;;;18.73;42.13;102034.16;5071366;28;20074;-88
2022/10/20 09:21:14;;;;;;;9.50;3.97;;;;;;;18.85;41.79;102046.50;5054842;28;20032;-90
2022/10/20 09:23:42;;;;;;;9.45;3.88;;;;;;;18.82;41.68;102018.69;5071297;28;20035;-83
2022/10/20 09:26:16;;;;;;;12.57;4.00;;;;;;;19.01;41.24;102039.38;5054829;28;20036;-92
2022/10/20 09:28:48;;;;;;;10.57;5.53;;;;;;;18.91;41.22;102007.63;5056625;28;20426;-94
2022/10/20 09:31:35;;;;;;;6.88;3.67;;;;;;;19.29;40.83;102021.91;5035002;28;20044;-87
2022/10/20 09:34:01;;;;;;;6.88;3.30;;;;;;;19.19;40.33;102016.41;5070556;28;20424;-84
2022/10/20 09:36:32;;;;;;;7.20;4.07;;;;;;;19.23;40.73;102027.53;5054563;28;20111;-85
2022/10/20 09:38:58;;;;;;;7.35;4.10;;;;;;;19.28;39.53;102009.75;5070692;28;20106;-82
2022/10/20 09:41:24;;;;;;;7.55;3.50;;;;;;;19.48;38.54;102017.19;5054110;28;20052;-91
2022/10/20 09:44:24;;;;;;;8.23;4.25;;;;;;;19.64;38.80;102030.16;5038846;28;20029;-86
2022/10/20 09:46:51;;;;;;;11.15;5.15;;;;;;;19.61;37.80;102009.38;5049443;28;20040;-83
2022/10/20 09:49:28;;;;;;;6.57;3.28;;;;;;;19.61;37.35;102020.72;5053362;28;20106;-91
2022/10/20 09:51:54;;;;;;;5.07;3.10;;;;;;;19.54;36.67;101993.16;5054475;28;20075;-82
2022/10/20 09:54:21;;;;;;;8.85;4.10;;;;;;;19.77;37.51;102020.56;5070640;28;20029;-90
2022/10/20 09:56:48;;;;;;;8.35;4.15;;;;;;;19.54;37.55;102008.06;5070750;28;20101;-89
2022/10/20 09:59:32;;;;;;;8.02;3.58;;;;;;;19.79;37.27;102023.09;5032201;28;20475;-87
2022/10/20 10:01:59;;;;;;;8.18;4.53;;;;;;;19.86;36.87;102027.84;5034700;28;20458;-83
2022/10/20 10:04:46;;;;;;;10.98;4.07;;;;;;;19.91;36.86;102025.75;5023717;28;20507;-85
2022/10/20 10:07:31;;;;;;;6.63;3.55;;;;;;;19.99;36.77;102020.00;5030048;28;20044;-82
2022/10/20 10:10:03;;;;;;;14.23;4.85;;;;;;;20.02;36.60;102027.66;5030410;28;20041;-90
2022/10/20 10:12:29;;;;;;;12.27;4.75;;;;;;;20.08;36.60;102016.75;5031733;28;20090;-86
2022/10/20 10:14:58;;;;;;;9.10;4.57;;;;;;;20.20;36.21;102020.34;5015048;28;20033;-93
2022/10/20 10:17:30;;;;;;;13.93;5.05;;;;;;;20.15;36.30;102018.00;5033698;28;20029;-88
2022/10/20 10:19:55;;;;;;;6.53;3.53;;;;;;;20.25;35.72;102007.72;5051507;28;20093;-89
2022/10/20 10:22:21;;;;;;;11.45;5.88;;;;;;;20.09;35.42;101992.16;5051559;28;20501;-81
2022/10/20 10:24:47;;;;;;;13.80;5.85;;;;;;;20.29;35.14;101998.69;5041063;28;20087;-83
2022/10/20 10:27:21;;;;;;;10.85;4.97;;;;;;;20.34;34.91;102001.84;5019638;28;20056;-88
2022/10/20 10:29:47;;;;;;;9.52;4.85;;;;;;;20.43;34.96;102003.03;5013113;28;20026;-90
2022/10/20 10:32:26;;;;;;;11.68;5.22;;;;;;;20.34;34.29;101994.78;4997339;28;20505;-88
2022/10/20 10:35:04;;;;;;;11.27;5.57;;;;;;;20.43;34.19;102006.50;5046355;28;20399;-88
2022/10/20 10:37:29;;;;;;;15.25;7.38;;;;;;;20.32;34.85;101988.81;5030700;28;20185;-85
2022/10/20 10:39:55;;;;;;;10.95;4.90;;;;;;;20.26;34.17;102004.16;5008344;28;20153;-86
2022/10/20 10:42:41;;;;;;;8.43;4.65;;;;;;;20.21;33.96;101991.31;5049533;28;20100;-87
2022/10/20 10:45:38;;;;;;;11.00;5.07;;;;;;;20.20;33.85;101992.28;5032475;28;20025;-86
2022/10/20 10:48:03;;;;;;;8.90;5.10;;;;;;;20.32;33.52;101988.81;5037641;28;20057;-81
2022/10/20 10:50:51;;;;;;;15.82;5.22;;;;;;;20.22;33.39;101956.22;5029822;28;20032;-81
2022/10/20 10:53:28;;;;;;;10.38;4.35;;;;;;;20.37;33.41;101979.78;5013217;28;20498;-84
2022/10/20 10:56:12;;;;;;;5.80;3.17;;;;;;;20.24;33.66;101961.38;5018961;28;20459;-81
2022/10/20 10:58:43;;;;;;;8.00;3.88;;;;;;;20.48;33.65;101957.09;5028939;28;20029;-82
2022/10/20 11:01:28;;;;;;;8.77;4.63;;;;;;;20.65;33.40;101969.06;5032588;28;20494;-84
2022/10/20 11:04:06;;;;;;;9.52;4.63;;;;;;;20.63;33.12;101973.56;5027527;28;20060;-88
2022/10/20 11:06:31;;;;;;;19.92;8.88;;;;;;;20.64;33.41;101959.47;5049023;28;20021;-94
2022/10/20 11:09:05;;;;;;;7.65;4.10;;;;;;;20.67;33.08;101953.19;5048982;28;20039;-83
2022/10/20 11:11:43;;;;;;;7.50;4.22;;;;;;;20.67;32.77;101951.38;5015724;28;20555;-81
2022/10/20 11:14:32;;;;;;;11.23;4.03;;;;;;;20.64;32.12;101959.47;5015454;28;20491;-92
2022/10/20 11:17:07;;;;;;;7.18;3.97;;;;;;;20.45;32.37;101936.28;5048183;28;20029;-82
2022/10/20 11:20:03;;;;;;;8.15;3.95;;;;;;;20.50;32.27;101921.00;5050081;28;20060;-83
2022/10/20 11:22:49;;;;;;;10.40;4.00;;;;;;;20.58;31.28;101937.09;5033347;28;20028;-85
2022/10/20 11:25:39;;;;;;;8.75;3.78;;;;;;;20.53;32.03;101944.44;5033148;28;20047;-82
2022/10/20 11:28:11;;;;;;;5.28;3.22;;;;;;;20.50;32.55;101949.09;5034805;28;20025;-82
2022/10/20 11:30:37;;;;;;;7.47;3.50;;;;;;;20.53;32.48;101933.09;5013917;28;20405;-86
2022/10/20 11:33:03;;;;;;;5.82;3.17;;;;;;;20.50;31.75;101949.09;5030618;28;20037;-86
2022/10/20 11:35:55;;;;;;;9.43;3.50;;;;;;;20.44;31.70;101946.88;5031838;28;20021;-83
2022/10/20 11:38:44;;;;;;;6.85;3.00;;;;;;;20.39;32.19;101933.19;5049087;28;20115;-91
2022/10/20 11:41:37;;;;;;;10.52;4.85;;;;;;;20.52;31.07;101941.94;5031376;28;20040;-85
2022/10/20 11:44:13;;;;;;;7.95;3.78;;;;;;;20.53;31.34;101940.97;5048628;28;20099;-83
2022/10/20 11:46:52;;;;;;;7.97;3.72;;;;;;;20.46;31.85;101937.97;5047739;28;20025;-82
2022/10/20 11:49:17;;;;;;;6.25;3.03;;;;;;;20.44;32.33;101939.00;5047976;28;20053;-86
2022/10/20 11:51:49;;;;;;;14.57;5.93;;;;;;;20.29;32.49;101946.97;5048351;28;20530;-85
2022/10/20 11:54:26;;;;;;;7.85;3.70;;;;;;;20.31;32.90;101945.06;5047769;28;20139;-92
2022/10/20 11:57:14;;;;;;;7.88;3.42;;;;;;;20.38;33.32;101931.53;5049328;28;20036;-88
2022/10/20 12:00:36;;;;;;;10.50;3.92;;;;;;;20.33;32.40;101927.41;5030608;28;20498;-89
2022/10/20 12:03:31;;;;;;;10.38;4.47;;;;;;;20.34;31.75;101929.09;5049578;28;20102;-87
2022/10/20 12:06:19;;;;;;;15.00;5.55;;;;;;;20.32;30.98;101920.47;5060193;28;20040;-85
2022/10/20 12:09:10;;;;;;;14.82;6.72;;;;;;;20.46;30.21;101922.19;5052749;28;20064;-82
2022/10/20 12:12:01;;;;;;;12.25;5.45;;;;;;;20.45;30.74;101919.63;5048285;28;20410;-87
2022/10/20 12:14:35;;;;;;;15.52;6.70;;;;;;;20.38;31.51;101915.75;5052455;28;20021;-84
2022/10/20 12:17:21;;;;;;;13.25;6.38;;;;;;;20.37;31.45;101895.69;5034837;28;20132;-86
2022/10/20 12:19:49;;;;;;;10.00;4.90;;;;;;;20.45;31.37;101902.13;5052277;28;20099;-80
2022/10/20 12:22:14;;;;;;;9.20;3.88;;;;;;;20.48;31.59;101894.00;5052280;28;20409;-80
2022/10/20 12:24:41;;;;;;;15.02;4.55;;;;;;;20.61;31.21;101907.94;5052757;28;20031;-80
2022/10/20 12:27:09;;;;;;;10.80;4.55;;;;;;;20.69;30.81;101912.66;5051973;28;20079;-83
2022/10/20 12:29:34;;;;;;;7.43;3.03;;;;;;;20.67;30.61;101911.94;5053607;28;20029;-81
2022/10/20 12:32:28;;;;;;;8.70;3.88;;;;;;;20.70;30.91;101914.34;5043461;28;20029;-81
2022/10/20 12:34:55;;;;;;;12.82;4.65;;;;;;;20.64;31.12;101904.25;5033012;28;20063;-83
2022/10/20 12:37:24;;;;;;;9.52;4.72;;;;;;;20.58;31.34;101892.41;5014705;28;20033;-82
2022/10/20 12:39:59;;;;;;;10.02;3.70;;;;;;;20.61;32.19;101910.56;5053176;28;20033;-83
2022/10/20 12:42:25;;;;;;;9.13;4.65;;;;;;;20.55;32.74;101910.16;5036569;28;20024;-83
2022/10/20 12:44:50;;;;;;;10.70;4.03;;;;;;;20.48;32.97;101887.91;5052723;28;20094;-83
2022/10/20 12:47:22;;;;;;;13.32;4.45;;;;;;;20.49;33.10;101885.16;5035106;28;20039;-84
2022/10/20 12:50:06;;;;;;;6.05;3.13;;;;;;;20.59;31.79;101906.38;5035103;28;20115;-87
2022/10/20 12:52:37;;;;;;;7.60;3.20;;;;;;;20.52;31.11;101908.59;5035545;28;20457;-83
2022/10/20 12:55:06;;;;;;;7.90;3.47;;;;;;;20.47;30.84;101896.75;5035272;28;20025;-85
2022/10/20 12:57:40;;;;;;;8.68;4.38;;;;;;;20.58;31.09;101907.34;5052046;28;20037;-87
2022/10/20 13:00:07;;;;;;;11.32;6.07;;;;;;;20.55;30.84;101900.50;5032236;28;20594;-90
2022/10/20 13:02:42;;;;;;;12.45;6.47;;;;;;;20.60;31.53;101906.28;5035534;28;20090;-88
2022/10/20 13:05:08;;;;;;;13.38;5.80;;;;;;;20.65;31.70;101907.72;5018631;28;20025;-87
2022/10/20 13:07:45;;;;;;;11.23;4.72;;;;;;;20.59;31.80;101914.28;5051082;28;20033;-87
2022/10/20 13:10:29;;;;;;;12.95;6.03;;;;;;;20.60;31.94;101916.78;5037778;28;20494;-85
2022/10/20 13:13:00;;;;;;;13.07;6.90;;;;;;;20.43;32.40;101900.50;5046011;28;20463;-86
2022/10/20 13:15:37;;;;;;;9.07;5.37;;;;;;;20.39;31.07;101883.25;5046268;28;20034;-83
2022/10/20 13:18:11;;;;;;;10.20;3.83;;;;;;;20.52;31.00;101916.47;5048735;28;20059;-87
2022/10/20 13:20:59;;;;;;;8.93;3.75;;;;;;;20.50;31.50;101912.28;5048511;28;20021;-85
2022/10/20 13:23:28;;;;;;;6.55;4.00;;;;;;;20.32;31.21;101914.38;5048337;28;20524;-81
2022/10/20 13:25:54;;;;;;;7.03;3.10;;;;;;;20.45;30.79;101917.00;5033805;28;20028;-83
2022/10/20 13:28:22;;;;;;;7.97;4.47;;;;;;;20.43;31.33;101913.66;5028453;28;20040;-83
2022/10/20 13:31:12;;;;;;;10.75;4.63;;;;;;;20.24;31.93;101896.50;5016032;28;20035;-84
2022/10/20 13:33:43;;;;;;;13.40;5.25;;;;;;;20.45;31.86;101919.63;5049476;28;20122;-83
2022/10/20 13:36:31;;;;;;;10.03;4.37;;;;;;;20.40;32.17;101927.84;5030538;28;20072;-82
2022/10/20 13:39:04;;;;;;;9.40;3.53;;;;;;;20.33;31.84;101922.16;5031422;28;20345;-83
2022/10/20 13:41:33;;;;;;;7.20;3.70;;;;;;;20.35;31.87;101929.94;5014986;28;20028;-88
2022/10/20 13:44:07;;;;;;;10.65;4.82;;;;;;;20.43;32.27;101932.06;5014280;28;20459;-90
2022/10/20 13:46:51;;;;;;;13.70;6.55;;;;;;;20.41;33.01;101926.03;5020866;28;20568;-87
2022/10/20 13:49:23;;;;;;;10.00;4.80;;;;;;;20.37;33.18;101927.22;5017302;28;20153;-89
2022/10/20 13:51:53;;;;;;;8.48;4.45;;;;;;;20.27;32.52;101917.34;5033818;28;20096;-95
2022/10/20 13:54:23;;;;;;;9.40;4.60;;;;;;;20.41;31.95;101908.47;5017157;28;20025;-78
2022/10/20 13:56:48;;;;;;;8.32;4.03;;;;;;;20.41;32.06;101926.03;5030587;28;20131;-80
2022/10/20 13:59:16;;;;;;;7.40;3.90;;;;;;;20.31;32.34;101915.31;5032693;28;20127;-79
2022/10/20 14:01:45;;;;;;;9.05;4.03;;;;;;;20.06;33.30;101892.56;5069772;28;20494;-82
